createdAt,value
2023-02-24T00:00:57.559Z,100468.00
2023-02-24T00:03:40.992Z,100462.00
2023-02-24T00:06:25.318Z,100488.00
2023-02-24T00:09:10.301Z,100455.00
2023-02-24T00:11:52.614Z,100493.00
2023-02-24T00:14:34.797Z,100476.00
2023-02-24T00:19:58.728Z,100485.00
2023-02-24T00:22:47.108Z,100484.00
2023-02-24T00:25:30.091Z,100451.00
2023-02-24T00:28:25.799Z,100453.00
2023-02-24T00:31:14.560Z,100463.00
2023-02-24T00:33:48.353Z,100464.00
2023-02-24T00:36:29.441Z,100428.00
2023-02-24T00:39:21.988Z,100471.00
2023-02-24T00:42:04.441Z,100460.00
2023-02-24T00:44:47.192Z,100453.00
2023-02-24T00:47:17.896Z,100419.00
2023-02-24T00:49:58.048Z,100431.00
2023-02-24T00:52:27.938Z,100448.00
2023-02-24T00:54:56.219Z,100391.00
2023-02-24T00:57:34.440Z,100404.00
2023-02-24T01:00:12.839Z,100403.00
2023-02-24T01:02:44.725Z,100424.00
2023-02-24T01:05:27.654Z,100443.00
2023-02-24T01:08:00.716Z,100419.00
2023-02-24T01:10:34.934Z,100427.00
2023-02-24T01:13:04.350Z,100434.00
2023-02-24T01:15:45.888Z,100413.00
2023-02-24T01:18:15.484Z,100375.00
2023-02-24T01:20:45.825Z,100437.00
2023-02-24T01:23:19.615Z,100359.00
2023-02-24T01:26:01.855Z,100411.00
2023-02-24T01:28:44.654Z,100405.00
2023-02-24T01:31:30.287Z,100409.00
2023-02-24T01:34:05.862Z,100404.00
2023-02-24T01:36:36.108Z,100410.00
2023-02-24T01:39:18.056Z,100400.00
2023-02-24T01:42:03.476Z,100401.00
2023-02-24T01:45:28.260Z,100389.00
2023-02-24T01:48:00.248Z,100379.00
2023-02-24T01:50:30.530Z,100359.00
2023-02-24T01:53:02.277Z,100376.00
2023-02-24T01:55:34.382Z,100344.00
2023-02-24T01:58:07.134Z,100379.00
2023-02-24T02:00:39.065Z,100361.00
2023-02-24T02:03:12.870Z,100357.00
2023-02-24T02:05:45.273Z,100373.00
2023-02-24T02:08:14.956Z,100349.00
2023-02-24T02:10:45.266Z,100337.00
2023-02-24T02:13:15.397Z,100369.00
2023-02-24T02:15:56.864Z,100330.00
2023-02-24T02:18:39.800Z,100337.00
2023-02-24T02:21:49.584Z,100315.00
2023-02-24T02:24:45.640Z,100331.00
2023-02-24T02:27:41.011Z,100324.00
2023-02-24T02:30:36.327Z,100325.00
2023-02-24T02:33:46.860Z,100324.00
2023-02-24T02:36:22.446Z,100304.00
2023-02-24T02:38:57.536Z,100326.00
2023-02-24T02:41:29.658Z,100290.00
2023-02-24T02:44:07.535Z,100314.00
2023-02-24T02:46:42.932Z,100310.00
2023-02-24T02:49:17.682Z,100314.00
2023-02-24T02:51:52.774Z,100300.00
2023-02-24T02:54:29.115Z,100309.00
2023-02-24T02:57:03.191Z,100290.00
2023-02-24T02:59:35.390Z,100290.00
2023-02-24T03:02:15.027Z,100264.00
2023-02-24T03:04:46.684Z,100288.00
2023-02-24T03:07:18.069Z,100270.00
2023-02-24T03:09:51.120Z,100232.00
2023-02-24T03:12:22.312Z,100221.00
2023-02-24T03:14:54.241Z,100238.00
2023-02-24T03:17:25.183Z,100222.00
2023-02-24T03:20:12.287Z,100255.00
2023-02-24T03:22:44.691Z,100244.00
2023-02-24T03:25:13.402Z,100252.00
2023-02-24T03:27:49.272Z,100202.00
2023-02-24T03:30:22.975Z,100246.00
2023-02-24T03:32:57.569Z,100215.00
2023-02-24T03:35:28.498Z,100232.00
2023-02-24T03:38:00.526Z,100177.00
2023-02-24T03:40:30.099Z,100239.00
2023-02-24T03:43:05.423Z,100228.00
2023-02-24T03:45:38.105Z,100227.00
2023-02-24T03:48:07.143Z,100214.00
2023-02-24T03:50:35.746Z,100210.00
2023-02-24T03:53:16.730Z,100221.00
2023-02-24T03:55:58.946Z,100219.00
2023-02-24T03:58:34.543Z,100209.00
2023-02-24T04:01:11.911Z,100199.00
2023-02-24T04:03:49.858Z,100155.00
2023-02-24T04:06:23.476Z,100178.00
2023-02-24T04:09:02.136Z,100192.00
2023-02-24T04:11:35.271Z,100225.00
2023-02-24T04:14:07.578Z,100211.00
2023-02-24T04:16:40.120Z,100216.00
2023-02-24T04:19:14.148Z,100199.00
2023-02-24T04:21:44.508Z,100184.00
2023-02-24T04:24:15.992Z,100184.00
2023-02-24T04:26:45.366Z,100210.00
2023-02-24T04:29:17.785Z,100188.00
2023-02-24T04:31:48.036Z,100130.00
2023-02-24T04:34:19.989Z,100168.00
2023-02-24T04:36:49.723Z,100198.00
2023-02-24T04:39:23.373Z,100151.00
2023-02-24T04:41:51.552Z,100197.00
2023-02-24T04:44:21.047Z,100129.00
2023-02-24T04:46:50.754Z,100161.00
2023-02-24T04:49:22.364Z,100129.00
2023-02-24T04:51:51.597Z,100152.00
2023-02-24T04:54:24.364Z,100154.00
2023-02-24T04:56:54.229Z,100164.00
2023-02-24T04:59:23.508Z,100151.00
2023-02-24T05:01:54.008Z,100148.00
2023-02-24T05:04:21.965Z,100143.00
2023-02-24T05:06:50.343Z,100159.00
2023-02-24T05:09:20.305Z,100142.00
2023-02-24T05:11:53.503Z,100116.00
2023-02-24T05:14:29.917Z,100128.00
2023-02-24T05:17:01.253Z,100133.00
2023-02-24T05:19:47.214Z,100070.00
2023-02-24T05:22:17.593Z,100129.00
2023-02-24T05:24:48.135Z,100113.00
2023-02-24T05:27:17.446Z,100060.00
2023-02-24T05:29:46.018Z,100103.00
2023-02-24T05:32:17.636Z,100095.00
2023-02-24T05:34:52.047Z,100041.00
2023-02-24T05:37:20.170Z,100031.00
2023-02-24T05:39:49.487Z,100067.00
2023-02-24T05:42:19.544Z,100074.00
2023-02-24T05:44:48.037Z,100022.00
2023-02-24T05:47:19.686Z,100024.00
2023-02-24T05:49:48.226Z,100038.00
2023-02-24T05:52:16.200Z,100034.00
2023-02-24T05:54:48.447Z,100033.00
2023-02-24T05:57:21.408Z,100070.00
2023-02-24T05:59:55.857Z,100033.00
2023-02-24T06:41:24.072Z,99949.00
2023-02-24T06:48:49.004Z,99958.00
2023-02-24T06:51:41.981Z,99962.00
2023-02-24T06:55:15.621Z,99981.00
2023-02-24T06:57:46.180Z,99972.00
2023-02-24T07:00:58.692Z,99955.00
2023-02-24T07:08:57.195Z,99951.00
2023-02-24T07:12:21.356Z,99916.00
2023-02-24T07:15:04.744Z,99957.00
2023-02-24T07:18:24.460Z,99942.00
2023-02-24T07:21:27.323Z,99920.00
2023-02-24T07:24:25.122Z,99904.00
2023-02-24T07:26:59.175Z,99897.00
2023-02-24T07:29:52.563Z,99915.00
2023-02-24T07:32:31.316Z,99933.00
2023-02-24T07:39:40.771Z,99904.00
2023-02-24T07:42:30.624Z,99861.00
2023-02-24T07:45:16.670Z,99852.00
2023-02-24T08:10:04.022Z,99856.00
2023-02-24T08:12:12.347Z,99843.00
2023-02-24T08:18:58.349Z,99789.00
2023-02-24T08:21:27.381Z,99836.00
2023-02-24T08:26:45.961Z,99786.00
2023-02-24T08:30:06.380Z,99820.00
2023-02-24T08:32:37.871Z,99779.00
2023-02-24T08:35:19.324Z,99824.00
2023-02-24T08:37:52.819Z,99767.00
2023-02-24T08:40:57.200Z,99817.00
2023-02-24T08:43:56.119Z,99794.00
2023-02-24T08:46:45.244Z,99795.00
2023-02-24T08:49:17.206Z,99793.00
2023-02-24T08:51:47.504Z,99742.00
2023-02-24T08:54:32.955Z,99805.00
2023-02-24T08:57:15.305Z,99805.00
2023-02-24T08:59:59.154Z,99763.00
2023-02-24T09:02:46.932Z,99790.00
2023-02-24T09:05:18.407Z,99813.00
2023-02-24T09:08:01.871Z,99796.00
2023-02-24T09:10:30.036Z,99733.00
2023-02-24T09:15:48.825Z,99775.00
2023-02-24T09:18:18.623Z,99711.00
2023-02-24T09:24:28.163Z,99764.00
2023-02-24T09:30:02.733Z,99752.00
2023-02-24T09:32:31.026Z,99701.00
2023-02-24T09:35:36.937Z,99733.00
2023-02-24T09:38:06.684Z,99721.00
2023-02-24T09:41:34.470Z,99726.00
2023-02-24T09:44:27.725Z,99690.00
2023-02-24T09:47:17.694Z,99740.00
2023-02-24T09:49:50.597Z,99718.00
2023-02-24T09:52:33.940Z,99725.00
2023-02-24T09:55:36.782Z,99729.00
2023-02-24T09:58:43.950Z,99700.00
2023-02-24T10:01:31.713Z,99627.00
2023-02-24T10:04:21.753Z,99712.00
2023-02-24T10:07:22.608Z,99701.00
2023-02-24T10:10:07.825Z,99647.00
2023-02-24T10:12:40.434Z,99657.00
2023-02-24T10:15:45.633Z,99675.00
2023-02-24T10:18:30.005Z,99682.00
2023-02-24T10:21:04.374Z,99668.00
2023-02-24T10:24:05.429Z,99658.00
2023-02-24T10:27:00.774Z,99649.00
2023-02-24T10:30:11.467Z,99628.00
2023-02-24T10:32:53.114Z,99639.00
2023-02-24T10:35:33.654Z,99603.00
2023-02-24T10:38:13.080Z,99644.00
2023-02-24T10:41:02.583Z,99644.00
2023-02-24T10:43:46.850Z,99636.00
2023-02-24T10:46:39.948Z,99620.00
2023-02-24T10:49:22.293Z,99576.00
2023-02-24T10:51:54.184Z,99611.00
2023-02-24T10:54:39.258Z,99620.00
2023-02-24T10:57:15.820Z,99611.00
2023-02-24T11:00:15.652Z,99615.00
2023-02-24T11:03:07.212Z,99595.00
2023-02-24T11:06:06.844Z,99591.00
2023-02-24T11:08:40.086Z,99584.00
2023-02-24T11:11:31.607Z,99513.00
2023-02-24T11:14:43.111Z,99579.00
2023-02-24T11:17:27.978Z,99539.00
2023-02-24T11:20:01.394Z,99533.00
2023-02-24T11:22:40.663Z,99524.00
2023-02-24T11:25:32.644Z,99526.00
2023-02-24T11:28:01.109Z,99514.00
2023-02-24T11:30:44.806Z,99510.00
2023-02-24T11:33:37.083Z,99479.00
2023-02-24T11:36:11.144Z,99497.00
2023-02-24T11:39:17.641Z,99471.00
2023-02-24T11:41:57.688Z,99465.00
2023-02-24T11:44:30.178Z,99474.00
2023-02-24T11:47:10.301Z,99443.00
2023-02-24T11:49:46.703Z,99449.00
2023-02-24T11:52:26.615Z,99419.00
2023-02-24T11:54:57.738Z,99467.00
2023-02-24T11:57:41.832Z,99456.00
2023-02-24T12:00:24.792Z,99406.00
2023-02-24T12:02:59.531Z,99443.00
2023-02-24T12:05:39.500Z,99442.00
2023-02-24T12:08:16.510Z,99364.00
2023-02-24T12:10:50.556Z,99387.00
2023-02-24T12:13:24.468Z,99399.00
2023-02-24T12:15:58.742Z,99430.00
2023-02-24T12:18:33.233Z,99416.00
2023-02-24T12:21:06.766Z,99418.00
2023-02-24T12:23:37.503Z,99412.00
2023-02-24T12:26:16.662Z,99377.00
2023-02-24T12:29:03.020Z,99406.00
2023-02-24T12:31:39.004Z,99412.00
2023-02-24T12:34:12.529Z,99354.00
2023-02-24T12:37:18.123Z,99422.00
2023-02-24T12:39:54.225Z,99387.00
2023-02-24T12:42:30.809Z,99383.00
2023-02-24T12:45:05.104Z,99396.00
2023-02-24T12:47:44.582Z,99404.00
2023-02-24T12:50:30.580Z,99392.00
2023-02-24T12:53:15.991Z,99382.00
2023-02-24T12:55:52.382Z,99384.00
2023-02-24T12:58:36.597Z,99380.00
2023-02-24T13:01:23.466Z,99377.00
2023-02-24T13:04:12.733Z,99377.00
2023-02-24T13:07:13.230Z,99362.00
2023-02-24T13:09:56.297Z,99364.00
2023-02-24T13:12:37.929Z,99356.00
2023-02-24T13:15:14.676Z,99341.00
2023-02-24T13:17:48.074Z,99311.00
2023-02-24T13:20:32.923Z,99344.00
2023-02-24T13:23:01.587Z,99330.00
2023-02-24T13:25:35.223Z,99330.00
2023-02-24T13:28:08.626Z,99330.00
2023-02-24T13:30:44.837Z,99273.00
2023-02-24T13:33:32.435Z,99283.00
2023-02-24T13:36:17.456Z,99321.00
2023-02-24T13:38:47.908Z,99252.00
2023-02-24T13:41:49.982Z,99295.00
2023-02-24T13:44:57.857Z,99292.00
2023-02-24T13:48:16.872Z,99257.00
2023-02-24T13:51:25.392Z,99284.00
2023-02-24T13:54:12.802Z,99226.00
2023-02-24T13:56:45.812Z,99224.00
2023-02-24T13:59:51.201Z,99271.00
2023-02-24T14:02:32.482Z,99253.00
2023-02-24T14:05:14.960Z,99272.00
2023-02-24T14:07:51.308Z,99261.00
2023-02-24T14:10:23.502Z,99199.00
2023-02-24T14:13:04.240Z,99214.00
2023-02-24T14:15:35.797Z,99188.00
2023-02-24T14:18:21.575Z,99214.00
2023-02-24T14:20:49.536Z,99246.00
2023-02-24T14:23:50.032Z,99231.00
2023-02-24T14:26:21.696Z,99244.00
2023-02-24T14:29:02.981Z,99233.00
2023-02-24T14:31:38.410Z,99197.00
2023-02-24T14:34:09.182Z,99207.00
2023-02-24T14:36:39.509Z,99229.00
2023-02-24T14:39:19.729Z,99218.00
2023-02-24T14:41:49.194Z,99215.00
2023-02-24T14:44:24.731Z,99213.00
2023-02-24T14:47:06.672Z,99209.00
2023-02-24T14:52:38.762Z,99188.00
2023-02-24T14:57:56.585Z,99161.00
2023-02-24T15:00:40.743Z,99205.00
2023-02-24T15:03:26.946Z,99150.00
2023-02-24T15:05:58.013Z,99203.00
2023-02-24T15:09:02.493Z,99140.00
2023-02-24T15:11:47.860Z,99180.00
2023-02-24T15:17:22.614Z,99179.00
2023-02-24T15:20:07.346Z,99183.00
2023-02-24T15:22:39.445Z,99162.00
2023-02-24T15:25:43.037Z,99136.00
2023-02-24T15:28:42.235Z,99123.00
2023-02-24T15:31:19.031Z,99125.00
2023-02-24T15:34:03.863Z,99120.00
2023-02-24T15:36:48.488Z,99093.00
2023-02-24T15:39:33.557Z,99104.00
2023-02-24T15:42:23.944Z,99132.00
2023-02-24T15:45:28.594Z,99076.00
2023-02-24T15:48:11.079Z,99132.00
2023-02-24T15:50:42.673Z,99148.00
2023-02-24T15:53:13.179Z,99094.00
2023-02-24T15:58:43.482Z,99121.00
2023-02-24T16:01:12.709Z,99102.00
2023-02-24T16:03:43.737Z,99061.00
2023-02-24T16:06:23.158Z,99137.00
2023-02-24T16:09:15.480Z,99076.00
2023-02-24T16:11:47.677Z,99087.00
2023-02-24T16:14:18.383Z,99073.00
2023-02-24T16:16:46.724Z,99082.00
2023-02-24T16:19:36.919Z,99116.00
2023-02-24T16:22:04.872Z,99131.00
2023-02-24T16:24:34.488Z,99062.00
2023-02-24T16:27:02.540Z,99063.00
2023-02-24T16:29:45.692Z,99063.00
2023-02-24T16:32:15.094Z,99047.00
2023-02-24T16:34:45.130Z,99061.00
2023-02-24T16:37:19.480Z,99091.00
2023-02-24T16:40:05.893Z,99094.00
2023-02-24T16:42:33.901Z,99082.00
2023-02-24T16:45:12.321Z,99069.00
2023-02-24T16:47:50.256Z,99036.00
2023-02-24T16:50:34.951Z,99096.00
2023-02-24T16:53:03.170Z,99061.00
2023-02-24T16:55:36.302Z,99019.00
2023-02-24T16:58:07.318Z,99079.00
2023-02-24T17:00:37.475Z,99052.00
2023-02-24T17:03:14.231Z,99024.00
2023-02-24T17:05:42.311Z,99083.00
2023-02-24T17:08:12.615Z,99075.00
2023-02-24T17:13:35.781Z,99065.00
2023-02-24T17:16:04.146Z,99042.00
2023-02-24T17:18:44.818Z,99028.00
2023-02-24T17:21:32.301Z,99076.00
2023-02-24T17:24:00.405Z,99056.00
2023-02-24T17:26:29.878Z,99062.00
2023-02-24T17:28:58.213Z,99016.00
2023-02-24T17:31:33.602Z,99027.00
2023-02-24T17:34:03.212Z,99020.00
2023-02-24T17:36:33.062Z,99044.00
2023-02-24T17:39:01.562Z,98991.00
2023-02-24T17:41:34.691Z,99038.00
2023-02-24T17:44:05.151Z,99062.00
2023-02-24T17:46:33.281Z,99076.00
2023-02-24T17:49:03.180Z,99067.00
2023-02-24T17:51:40.826Z,98999.00
2023-02-24T17:54:09.824Z,99078.00
2023-02-24T18:01:14.236Z,98992.00
2023-02-24T18:03:42.157Z,99062.00
2023-02-24T18:06:11.652Z,99051.00
2023-02-24T18:08:40.541Z,99026.00
2023-02-24T18:11:22.636Z,99056.00
2023-02-24T18:14:00.139Z,99067.00
2023-02-24T18:17:39.184Z,98987.00
2023-02-24T18:21:13.508Z,99054.00
2023-02-24T18:23:45.862Z,99062.00
2023-02-24T18:26:24.701Z,99040.00
2023-02-24T18:29:09.744Z,99030.00
2023-02-24T18:31:38.369Z,99059.00
2023-02-24T18:34:14.874Z,99048.00
2023-02-24T18:36:49.575Z,99053.00
2023-02-24T18:39:18.588Z,99039.00
2023-02-24T18:41:46.227Z,99066.00
2023-02-24T18:44:14.231Z,99063.00
2023-02-24T18:46:42.006Z,99073.00
2023-02-24T18:49:11.527Z,99067.00
2023-02-24T18:51:39.578Z,99065.00
2023-02-24T18:54:07.413Z,99074.00
2023-02-24T18:56:36.583Z,99080.00
2023-02-24T18:59:05.130Z,99064.00
2023-02-24T19:01:34.447Z,99081.00
2023-02-24T19:04:03.127Z,99083.00
2023-02-24T19:06:33.198Z,99083.00
2023-02-24T19:09:02.969Z,99076.00
2023-02-24T19:11:31.216Z,99072.00
2023-02-24T19:14:00.872Z,99081.00
2023-02-24T19:16:29.024Z,99082.00
2023-02-24T19:18:58.577Z,99076.00
2023-02-24T19:21:27.351Z,99077.00
2023-02-24T19:23:55.236Z,99082.00
2023-02-24T19:26:25.382Z,99086.00
2023-02-24T19:28:53.565Z,99086.00
2023-02-24T19:31:25.201Z,99081.00
2023-02-24T19:33:53.901Z,99075.00
2023-02-24T19:36:21.895Z,99062.00
2023-02-24T19:38:49.854Z,99073.00
2023-02-24T19:41:17.628Z,99075.00
2023-02-24T19:43:45.443Z,99075.00
2023-02-24T19:46:15.995Z,99077.00
2023-02-24T19:48:45.837Z,99064.00
2023-02-24T19:51:15.432Z,99076.00
2023-02-24T19:53:43.410Z,99071.00
2023-02-24T19:56:11.380Z,99062.00
2023-02-24T19:58:39.541Z,99073.00
2023-02-24T20:01:09.259Z,99070.00
2023-02-24T20:03:37.397Z,99078.00
2023-02-24T20:06:08.048Z,99086.00
2023-02-24T20:08:36.348Z,99079.00
2023-02-24T20:11:06.156Z,99079.00
2023-02-24T20:13:33.871Z,99081.00
2023-02-24T20:16:05.990Z,99086.00
2023-02-24T20:18:33.712Z,99089.00
2023-02-24T20:21:01.557Z,99082.00
2023-02-24T20:23:32.017Z,99085.00
2023-02-24T20:26:00.599Z,99091.00
2023-02-24T20:28:29.106Z,99093.00
2023-02-24T20:30:58.792Z,99095.00
2023-02-24T20:33:27.040Z,99079.00
2023-02-24T20:35:55.647Z,99078.00
2023-02-24T20:38:23.400Z,99071.00
2023-02-24T20:41:00.185Z,99084.00
2023-02-24T20:43:29.596Z,99097.00
2023-02-24T20:45:58.625Z,99095.00
2023-02-24T20:48:27.131Z,99103.00
2023-02-24T20:50:54.890Z,99093.00
2023-02-24T20:53:22.552Z,99097.00
2023-02-24T20:55:50.225Z,99099.00
2023-02-24T20:58:19.294Z,99105.00
2023-02-24T21:00:47.007Z,99098.00
2023-02-24T21:03:14.803Z,99085.00
2023-02-24T21:05:42.550Z,99089.00
2023-02-24T21:08:11.628Z,99086.00
2023-02-24T21:10:39.354Z,99082.00
2023-02-24T21:13:08.325Z,99091.00
2023-02-24T21:15:37.425Z,99093.00
2023-02-24T21:18:08.478Z,99093.00
2023-02-24T21:20:36.694Z,99089.00
2023-02-24T21:23:07.339Z,99081.00
2023-02-24T21:25:34.996Z,99085.00
2023-02-24T21:28:02.729Z,99073.00
2023-02-24T21:30:30.518Z,99084.00
2023-02-24T21:33:00.164Z,99085.00
2023-02-24T21:35:27.972Z,99078.00
2023-02-24T21:37:56.581Z,99077.00
2023-02-24T21:40:24.755Z,99077.00
2023-02-24T21:42:52.493Z,99086.00
2023-02-24T21:45:20.158Z,99079.00
2023-02-24T21:47:47.872Z,99084.00
2023-02-24T21:50:18.090Z,99075.00
2023-02-24T21:52:46.782Z,99093.00
2023-02-24T21:55:15.124Z,99092.00
2023-02-24T21:57:45.541Z,99093.00
2023-02-24T22:00:19.055Z,99098.00
2023-02-24T22:02:47.746Z,99093.00
2023-02-24T22:05:17.326Z,99088.00
2023-02-24T22:07:45.089Z,99094.00
2023-02-24T22:10:14.302Z,99093.00
2023-02-24T22:12:41.994Z,99102.00
2023-02-24T22:15:10.425Z,99088.00
2023-02-24T22:17:39.933Z,99095.00
2023-02-24T22:20:10.927Z,99099.00
2023-02-24T22:22:41.306Z,99116.00
2023-02-24T22:25:11.343Z,99107.00
2023-02-24T22:27:39.064Z,99098.00
2023-02-24T22:30:08.734Z,99109.00
2023-02-24T22:32:37.522Z,99108.00
2023-02-24T22:35:05.959Z,99116.00
2023-02-24T22:37:34.508Z,99110.00
2023-02-24T22:40:03.606Z,99108.00
2023-02-24T22:42:31.448Z,99093.00
2023-02-24T22:45:00.203Z,99094.00
2023-02-24T22:47:27.854Z,99091.00
2023-02-24T22:49:55.548Z,99107.00
2023-02-24T22:52:23.179Z,99094.00
2023-02-24T22:54:52.864Z,99104.00
2023-02-24T22:57:21.935Z,99087.00
2023-02-24T22:59:49.595Z,99093.00
2023-02-24T23:02:17.206Z,99092.00
2023-02-24T23:04:44.872Z,99103.00
2023-02-24T23:07:12.633Z,99086.00
2023-02-24T23:09:40.424Z,99087.00
2023-02-24T23:12:11.639Z,99098.00
2023-02-24T23:14:40.829Z,99093.00
2023-02-24T23:17:08.577Z,99109.00
2023-02-24T23:19:36.331Z,99101.00
2023-02-24T23:22:04.637Z,99089.00
2023-02-24T23:24:32.285Z,99106.00
2023-02-24T23:27:00.977Z,99100.00
2023-02-24T23:29:30.717Z,99102.00
2023-02-24T23:31:59.956Z,99100.00
2023-02-24T23:34:27.843Z,99096.00
2023-02-24T23:36:55.550Z,99089.00
2023-02-24T23:39:23.849Z,99117.00
2023-02-24T23:41:56.649Z,99121.00
2023-02-24T23:44:25.056Z,99115.00
2023-02-24T23:46:52.760Z,99128.00
2023-02-24T23:49:21.745Z,99119.00
2023-02-24T23:51:49.399Z,99130.00
2023-02-24T23:54:17.291Z,99123.00
2023-02-24T23:56:45.308Z,99124.00
2023-02-24T23:59:12.997Z,99125.00
